Time;durP1;ratioP1;P1;durP2;ratioP2;P2;SDS_P1;SDS_P2;PMS_P1;PMS_P2;Temp;Humidity;BMP_temperature;BMP_pressure;BME280_temperature;BME280_humidity;BME280_pressure;Samples;Min_cycle;Max_cycle;Signal;HPM_P1;HPM_P2
2022/12/04 00:00:11;;;;;;;29.73;10.70;;;;;;;-0.86;48.77;102189.69;4952741;28;20043;-69
2022/12/04 00:02:36;;;;;;;30.90;11.18;;;;;;;-0.62;48.01;102190.38;4963080;28;20031;-69
2022/12/04 00:05:03;;;;;;;29.15;11.18;;;;;;;-0.71;48.26;102191.84;4964358;28;20044;-68
2022/12/04 00:07:28;;;;;;;24.17;9.40;;;;;;;-0.65;47.90;102198.00;4966915;28;20050;-68
2022/12/04 00:09:54;;;;;;;26.17;11.18;;;;;;;-0.57;48.12;102188.84;4962064;28;20027;-67
2022/12/04 00:12:19;;;;;;;21.88;9.77;;;;;;;-0.89;48.54;102190.47;4961089;28;20045;-68
2022/12/04 00:14:45;;;;;;;25.73;9.73;;;;;;;-0.89;48.33;102194.75;4947087;28;20399;-68
2022/12/04 00:17:10;;;;;;;28.45;10.15;;;;;;;-0.89;48.38;102189.63;4962198;28;20214;-67
2022/12/04 00:19:36;;;;;;;35.97;11.98;;;;;;;-0.89;48.39;102192.19;4959617;28;20065;-68
2022/12/04 00:22:01;;;;;;;32.35;11.07;;;;;;;-1.09;48.81;102196.69;4961776;28;20515;-68
2022/12/04 00:24:27;;;;;;;26.95;10.68;;;;;;;-1.00;48.29;102186.72;4959714;28;20027;-68
2022/12/04 00:26:52;;;;;;;34.70;12.38;;;;;;;-0.86;48.28;102190.59;4958942;28;20054;-68
2022/12/04 00:29:18;;;;;;;22.48;9.68;;;;;;;-0.92;48.36;102190.41;4957256;28;20034;-68
2022/12/04 00:31:43;;;;;;;34.28;12.52;;;;;;;-0.62;47.58;102192.94;4942298;28;20026;-68
2022/12/04 00:34:09;;;;;;;27.30;9.98;;;;;;;-1.01;48.39;102190.16;4958076;28;20492;-69
2022/12/04 00:36:34;;;;;;;26.80;9.57;;;;;;;-1.07;48.45;102188.22;4958852;28;20630;-69
2022/12/04 00:39:00;;;;;;;27.80;10.68;;;;;;;-1.02;48.47;102184.16;4959438;28;20559;-68
2022/12/04 00:41:28;;;;;;;34.15;10.75;;;;;;;-1.08;48.65;102183.94;4959134;28;20277;-68
2022/12/04 00:43:54;;;;;;;22.80;9.88;;;;;;;-0.83;47.88;102187.22;4957754;28;20049;-70
2022/12/04 00:46:20;;;;;;;33.25;10.63;;;;;;;-1.02;48.54;102196.09;4958350;28;20035;-69
2022/12/04 00:48:46;;;;;;;30.45;11.43;;;;;;;-0.71;47.63;102185.00;4959332;28;20047;-69
2022/12/04 00:51:18;;;;;;;24.60;10.40;;;;;;;-0.85;48.04;102189.75;4960359;28;20223;-69
2022/12/04 00:53:43;;;;;;;21.85;8.63;;;;;;;-0.69;47.63;102183.34;4960008;28;20528;-69
2022/12/04 00:56:12;;;;;;;28.63;11.63;;;;;;;-0.64;47.63;102184.38;4959426;28;20034;-69
2022/12/04 00:58:38;;;;;;;30.90;11.50;;;;;;;-0.64;47.70;102175.75;4957683;28;20043;-69
2022/12/04 01:01:06;;;;;;;25.50;9.90;;;;;;;-0.65;47.10;102174.91;4959593;28;20412;-69
2022/12/04 01:03:32;;;;;;;24.40;10.43;;;;;;;-0.57;46.86;102167.44;4960047;28;20044;-69
2022/12/04 01:05:58;;;;;;;29.27;9.52;;;;;;;-0.68;47.22;102177.41;4950607;28;20311;-69
2022/12/04 01:08:24;;;;;;;34.38;12.27;;;;;;;-1.05;47.53;102178.91;4962629;28;20100;-68
2022/12/04 01:10:50;;;;;;;24.77;10.93;;;;;;;-1.23;47.62;102173.22;4962694;28;20038;-69
2022/12/04 01:13:15;;;;;;;27.23;11.00;;;;;;;-0.88;47.11;102175.97;4954575;28;20043;-69
2022/12/04 01:15:42;;;;;;;32.00;12.30;;;;;;;-0.93;47.26;102175.81;4945063;28;20038;-69
2022/12/04 01:18:09;;;;;;;41.75;13.45;;;;;;;-1.14;47.47;102173.47;4962427;28;20668;-65
2022/12/04 01:20:35;;;;;;;40.03;13.98;;;;;;;-1.14;47.27;102173.47;4961258;28;20058;-64
2022/12/04 01:23:00;;;;;;;32.92;11.57;;;;;;;-1.27;47.67;102173.94;4960221;28;20259;-65
2022/12/04 01:25:26;;;;;;;33.70;13.70;;;;;;;-1.40;48.01;102171.00;4962481;28;20030;-65
2022/12/04 01:27:52;;;;;;;31.90;12.20;;;;;;;-1.57;48.32;102176.44;4942552;28;20039;-65
2022/12/04 01:30:17;;;;;;;38.13;14.20;;;;;;;-1.52;47.85;102173.19;4962248;28;20831;-66
2022/12/04 01:32:43;;;;;;;30.00;14.23;;;;;;;-1.51;48.12;102177.50;4960779;28;20046;-65
2022/12/04 01:35:08;;;;;;;44.20;15.00;;;;;;;-1.42;47.89;102177.78;4963471;28;20117;-65
2022/12/04 01:37:34;;;;;;;40.55;14.88;;;;;;;-1.34;47.87;102174.59;4962289;28;20626;-65
2022/12/04 01:39:59;;;;;;;41.78;13.85;;;;;;;-1.31;47.64;102184.94;4961821;28;20041;-69
2022/12/04 01:42:25;;;;;;;31.77;13.23;;;;;;;-1.53;48.24;102186.84;4962213;28;20042;-70
2022/12/04 01:45:28;;;;;;;40.35;16.23;;;;;;;-1.47;48.21;102184.44;4961450;28;20106;-70
2022/12/04 01:47:56;;;;;;;37.55;14.13;;;;;;;-1.66;48.66;102174.47;4957458;28;20042;-69
2022/12/04 01:50:22;;;;;;;33.38;12.57;;;;;;;-1.67;48.17;102183.81;4953844;28;20043;-69
2022/12/04 01:52:48;;;;;;;35.28;15.10;;;;;;;-1.78;48.34;102187.75;4976495;28;20057;-68
2022/12/04 01:55:14;;;;;;;33.55;13.57;;;;;;;-1.71;48.43;102173.44;4961156;28;20030;-70
2022/12/04 01:57:39;;;;;;;42.67;15.10;;;;;;;-1.50;47.59;102180.94;4960685;28;20043;-70
2022/12/04 02:00:09;;;;;;;32.05;14.55;;;;;;;-1.69;48.66;102182.03;4961425;28;20031;-70
2022/12/04 02:02:41;;;;;;;38.22;15.68;;;;;;;-1.69;48.30;102176.91;4955686;28;20057;-69
2022/12/04 02:05:11;;;;;;;36.28;13.88;;;;;;;-1.67;47.91;102176.13;4950733;28;20039;-69
2022/12/04 02:07:39;;;;;;;40.13;14.77;;;;;;;-1.73;48.29;102178.53;4954017;28;20043;-70
2022/12/04 02:10:07;;;;;;;38.22;13.15;;;;;;;-1.67;47.89;102182.97;4961614;28;20030;-70
2022/12/04 02:12:48;;;;;;;35.33;15.38;;;;;;;-1.67;47.78;102176.13;4961443;28;20039;-68
2022/12/04 02:15:25;;;;;;;41.78;13.95;;;;;;;-1.60;47.76;102172.06;4965100;28;20039;-70
2022/12/04 02:18:25;;;;;;;46.90;15.80;;;;;;;-1.48;47.45;102172.47;4944754;28;20298;-70
2022/12/04 02:21:29;;;;;;;38.63;14.73;;;;;;;-1.96;48.47;102172.63;4954613;28;20110;-69
2022/12/04 02:24:36;;;;;;;36.22;14.00;;;;;;;-1.81;47.73;102168.00;4928189;28;20089;-70
2022/12/04 02:27:06;;;;;;;41.97;14.60;;;;;;;-1.56;47.57;102167.91;4953270;28;20062;-70
2022/12/04 02:29:39;;;;;;;47.45;16.65;;;;;;;-1.77;47.84;102166.44;4961751;28;20035;-71
2022/12/04 02:32:29;;;;;;;36.83;14.70;;;;;;;-1.87;48.28;102169.50;4963426;28;20101;-69
2022/12/04 02:35:04;;;;;;;39.17;14.57;;;;;;;-1.84;48.23;102167.94;4960391;28;20062;-70
2022/12/04 02:37:44;;;;;;;33.38;14.18;;;;;;;-1.52;47.59;102170.63;4959693;28;20073;-69
2022/12/04 02:40:24;;;;;;;38.38;13.88;;;;;;;-1.75;47.93;102162.22;4946534;28;20061;-71
2022/12/04 02:42:58;;;;;;;38.38;15.60;;;;;;;-1.96;48.59;102166.66;4959865;28;20050;-69
2022/12/04 02:45:31;;;;;;;34.25;13.77;;;;;;;-1.98;48.69;102158.91;4959194;28;20049;-70
2022/12/04 02:48:00;;;;;;;40.97;15.50;;;;;;;-1.90;47.98;102162.59;4960624;28;20411;-70
2022/12/04 02:50:26;;;;;;;36.35;14.30;;;;;;;-2.24;48.84;102164.03;4958538;28;20034;-68
2022/12/04 02:53:04;;;;;;;42.38;14.23;;;;;;;-2.05;48.65;102164.66;4960270;28;20504;-67
2022/12/04 02:55:35;;;;;;;41.85;14.70;;;;;;;-2.02;48.57;102163.06;4974717;28;20030;-68
2022/12/04 02:58:07;;;;;;;43.63;14.40;;;;;;;-1.91;48.86;102171.13;4960569;28;20039;-67
2022/12/04 03:00:35;;;;;;;38.47;14.07;;;;;;;-1.93;48.56;102174.41;4961305;28;20371;-67
2022/12/04 03:03:07;;;;;;;42.92;16.10;;;;;;;-1.71;48.03;102165.72;4959684;28;20058;-68
2022/12/04 03:05:39;;;;;;;40.60;14.38;;;;;;;-1.81;48.39;102173.13;4959984;28;21378;-67
2022/12/04 03:08:09;;;;;;;33.08;15.27;;;;;;;-1.84;48.20;102167.94;4959921;28;20061;-67
2022/12/04 03:10:44;;;;;;;40.45;16.27;;;;;;;-1.74;48.30;102174.22;4959945;28;20030;-67
2022/12/04 03:13:19;;;;;;;40.10;16.30;;;;;;;-1.91;48.44;102173.69;4961160;28;20039;-66
2022/12/04 03:15:49;;;;;;;40.45;15.93;;;;;;;-1.92;48.63;102179.59;4959870;28;20098;-66
2022/12/04 03:18:25;;;;;;;49.10;16.52;;;;;;;-1.69;48.02;102179.47;4960563;28;20291;-68
2022/12/04 03:20:57;;;;;;;36.20;15.13;;;;;;;-1.86;48.33;102178.94;4956859;28;20325;-69
2022/12/04 03:23:31;;;;;;;44.35;13.77;;;;;;;-1.94;48.54;102190.63;4973788;28;20146;-69
2022/12/04 03:25:59;;;;;;;38.08;15.68;;;;;;;-1.92;48.37;102183.88;4964740;28;20264;-69
2022/12/04 03:28:33;;;;;;;44.55;16.33;;;;;;;-1.71;48.25;102188.81;4959020;28;20527;-67
2022/12/04 03:31:05;;;;;;;43.42;15.40;;;;;;;-1.43;47.37;102191.41;4971938;28;20035;-67
2022/12/04 03:33:43;;;;;;;40.17;14.48;;;;;;;-1.52;47.63;102180.88;4957201;28;20050;-66
2022/12/04 03:36:31;;;;;;;36.10;13.38;;;;;;;-1.55;47.83;102188.50;4959385;28;20038;-67
2022/12/04 03:39:21;;;;;;;35.67;13.43;;;;;;;-1.57;48.18;102181.56;4959542;28;20100;-66
2022/12/04 03:41:56;;;;;;;39.70;15.15;;;;;;;-1.51;47.83;102182.66;4959915;28;20042;-66
2022/12/04 03:44:42;;;;;;;37.85;14.70;;;;;;;-1.58;47.93;102180.69;4957550;28;20050;-72
2022/12/04 03:47:30;;;;;;;34.38;14.27;;;;;;;-1.54;48.09;102187.66;4960302;28;20042;-71
2022/12/04 03:50:01;;;;;;;38.95;14.55;;;;;;;-1.49;47.83;102183.53;4953443;28;20146;-72
2022/12/04 03:52:37;;;;;;;41.28;15.00;;;;;;;-1.31;47.59;102182.34;4960060;28;20062;-66
2022/12/04 03:55:14;;;;;;;35.83;12.88;;;;;;;-1.31;47.56;102184.94;4962475;28;20102;-67
2022/12/04 03:57:44;;;;;;;38.53;15.18;;;;;;;-1.18;47.60;102187.03;4964768;28;20086;-67
2022/12/04 04:00:19;;;;;;;36.45;14.85;;;;;;;-1.41;47.45;102182.09;4967447;28;20514;-67
2022/12/04 04:02:53;;;;;;;38.90;14.20;;;;;;;-1.59;48.36;102181.53;4975662;28;20057;-70
2022/12/04 04:05:21;;;;;;;43.03;15.50;;;;;;;-1.43;47.90;102185.44;4968042;28;20054;-72
2022/12/04 04:07:52;;;;;;;36.78;14.23;;;;;;;-1.55;48.50;102182.47;4942635;28;20042;-72
2022/12/04 04:10:21;;;;;;;36.35;14.45;;;;;;;-1.72;48.99;102177.69;4958196;28;20034;-73
2022/12/04 04:24:13;;;;;;;40.08;16.05;;;;;;;-1.64;48.65;102183.06;4972850;28;20448;-72
2022/12/04 04:24:14;;;;;;;43.30;16.77;;;;;;;-1.66;48.73;102177.03;4957206;28;20606;-72
2022/12/04 04:26:46;;;;;;;50.88;14.80;;;;;;;-1.67;49.18;102175.28;4958084;28;20030;-73
2022/12/04 04:29:12;;;;;;;44.92;15.90;;;;;;;-1.56;48.96;102178.19;4957438;28;20042;-73
2022/12/04 04:32:03;;;;;;;43.00;16.95;;;;;;;-1.48;49.13;102177.59;4955630;28;20053;-71
2022/12/04 04:34:53;;;;;;;39.10;15.65;;;;;;;-1.34;48.41;102174.59;4958508;28;20092;-72
2022/12/04 04:37:37;;;;;;;41.08;15.68;;;;;;;-1.09;48.19;102176.19;4964658;28;20031;-66
2022/12/04 04:40:16;;;;;;;36.03;15.93;;;;;;;-1.39;48.87;102175.31;4959042;28;20046;-66
2022/12/04 04:43:08;;;;;;;43.47;15.43;;;;;;;-1.15;47.81;102171.75;4958048;28;20070;-66
2022/12/04 04:46:06;;;;;;;47.17;16.77;;;;;;;-1.14;48.42;102175.19;4957105;28;20037;-64
2022/12/04 04:48:43;;;;;;;42.15;17.77;;;;;;;-1.10;48.46;102177.00;4956128;28;20049;-64
2022/12/04 04:51:10;;;;;;;42.13;15.30;;;;;;;-1.24;48.26;102168.88;4958255;28;20329;-64
2022/12/04 04:53:47;;;;;;;41.85;15.40;;;;;;;-0.99;47.93;102173.97;4956908;28;20047;-65
2022/12/04 04:56:13;;;;;;;45.47;17.73;;;;;;;-0.95;48.09;102179.16;4960836;28;20476;-65
2022/12/04 04:58:40;;;;;;;37.05;14.90;;;;;;;-1.05;47.79;102178.91;4944461;28;20452;-65
2022/12/04 05:01:13;;;;;;;39.22;16.00;;;;;;;-1.12;48.66;102176.97;4960104;28;20530;-64
2022/12/04 05:03:39;;;;;;;39.75;15.85;;;;;;;-1.20;48.55;102175.84;4955912;28;20074;-69
2022/12/04 05:06:05;;;;;;;46.13;17.50;;;;;;;-1.50;49.22;102180.94;4956397;28;20526;-68
2022/12/04 05:08:31;;;;;;;41.88;16.83;;;;;;;-1.19;49.06;102182.75;4948670;28;20050;-72
2022/12/04 05:10:57;;;;;;;47.88;17.75;;;;;;;-1.10;48.26;102177.88;4975750;28;20122;-70
2022/12/04 05:13:22;;;;;;;37.90;14.98;;;;;;;-1.20;48.45;102189.56;4949544;28;20049;-69
2022/12/04 05:16:02;;;;;;;45.15;17.50;;;;;;;-1.50;49.36;102186.94;4957836;28;20070;-69
2022/12/04 05:18:28;;;;;;;41.65;16.10;;;;;;;-1.44;49.29;102184.56;4963744;28;20043;-69
2022/12/04 05:20:53;;;;;;;41.53;13.90;;;;;;;-1.21;48.79;102187.81;4954828;28;20035;-67
2022/12/04 05:23:19;;;;;;;41.03;15.27;;;;;;;-1.34;49.24;102189.97;4956887;28;20064;-67
2022/12/04 05:25:45;;;;;;;38.97;14.70;;;;;;;-1.33;49.13;102186.56;4956071;28;20101;-67
2022/12/04 05:28:10;;;;;;;40.85;14.82;;;;;;;-1.42;49.39;102193.19;4973733;28;20043;-67
2022/12/04 05:30:37;;;;;;;40.60;15.57;;;;;;;-1.16;48.91;102195.66;4955100;28;20473;-67
2022/12/04 05:33:03;;;;;;;42.60;16.23;;;;;;;-1.10;49.25;102194.97;4973171;28;20077;-66
2022/12/04 05:35:28;;;;;;;36.75;14.32;;;;;;;-0.92;48.88;102202.38;4956091;28;20051;-67
2022/12/04 05:37:54;;;;;;;36.90;16.00;;;;;;;-1.13;49.14;102195.72;4955829;28;20054;-67
2022/12/04 05:40:20;;;;;;;34.25;14.07;;;;;;;-0.93;48.92;102198.06;4958105;28;20039;-67
2022/12/04 05:42:46;;;;;;;39.35;13.70;;;;;;;-1.19;49.54;102193.88;4957501;28;20047;-66
2022/12/04 05:45:11;;;;;;;38.60;15.73;;;;;;;-0.84;48.99;102190.59;4946550;28;20073;-68
2022/12/04 05:47:41;;;;;;;41.42;14.95;;;;;;;-0.84;48.75;102193.19;4942334;28;20580;-68
2022/12/04 05:50:08;;;;;;;42.05;17.45;;;;;;;-0.81;48.80;102194.16;4959913;28;20446;-67
2022/12/04 05:52:34;;;;;;;36.88;15.10;;;;;;;-0.81;48.81;102198.41;4958679;28;20042;-69
2022/12/04 05:54:59;;;;;;;36.88;14.93;;;;;;;-0.79;49.17;102199.34;4962028;28;20035;-67
2022/12/04 05:57:25;;;;;;;31.50;13.07;;;;;;;-0.87;49.04;102193.09;4960362;28;20030;-67
2022/12/04 05:59:51;;;;;;;35.97;13.60;;;;;;;-0.81;49.16;102193.28;4957201;28;20069;-66
2022/12/04 06:02:17;;;;;;;45.83;17.08;;;;;;;-0.81;49.18;102194.16;4963101;28;20035;-66
2022/12/04 06:04:42;;;;;;;34.60;14.82;;;;;;;-0.68;49.49;102190.25;4961545;28;21007;-67
2022/12/04 06:07:09;;;;;;;35.33;14.00;;;;;;;-0.61;49.20;102197.28;4960188;28;21027;-67
2022/12/04 06:09:35;;;;;;;32.83;14.30;;;;;;;-0.90;50.20;102193.03;4960887;28;20038;-67
2022/12/04 06:12:01;;;;;;;38.95;14.77;;;;;;;-0.79;49.65;102197.63;4960271;28;20050;-68
2022/12/04 06:14:26;;;;;;;44.88;15.88;;;;;;;-0.65;49.55;102192.00;4959248;28;20062;-69
2022/12/04 06:16:53;;;;;;;32.53;15.25;;;;;;;-1.03;50.34;102189.22;4960652;28;20041;-71
2022/12/04 06:19:21;;;;;;;41.20;16.30;;;;;;;-0.85;50.10;102191.44;4959790;28;20312;-70
2022/12/04 06:21:49;;;;;;;38.25;13.20;;;;;;;-0.77;49.99;102195.13;4959662;28;20034;-71
2022/12/04 06:24:20;;;;;;;41.20;17.20;;;;;;;-0.58;49.52;102196.47;4958074;28;20069;-69
2022/12/04 06:26:47;;;;;;;32.87;13.53;;;;;;;-0.70;49.76;102204.72;4959592;28;20030;-70
2022/12/04 06:29:14;;;;;;;34.97;14.65;;;;;;;-0.73;50.29;102203.75;4964210;28;20102;-71
2022/12/04 06:31:40;;;;;;;32.35;13.32;;;;;;;-0.77;50.11;102215.66;4959432;28;20093;-71
2022/12/04 06:34:07;;;;;;;34.88;15.70;;;;;;;-0.97;50.79;102212.50;4961623;28;20362;-71
2022/12/04 06:36:33;;;;;;;34.30;15.68;;;;;;;-0.85;50.35;102210.28;4975853;28;23015;-71
2022/12/04 06:38:59;;;;;;;35.15;13.77;;;;;;;-0.90;50.77;102213.56;4960778;28;20072;-72
2022/12/04 06:41:25;;;;;;;33.00;13.05;;;;;;;-0.70;50.00;102201.28;4962454;28;20117;-71
2022/12/04 06:43:51;;;;;;;34.05;13.70;;;;;;;-0.72;50.48;102205.50;4943670;28;20408;-69
2022/12/04 06:46:31;;;;;;;39.20;15.90;;;;;;;-0.81;50.48;102203.56;4958878;28;20109;-70
2022/12/04 06:48:59;;;;;;;33.63;13.55;;;;;;;-1.05;51.10;102201.13;4958448;28;20607;-72
2022/12/04 06:51:35;;;;;;;37.17;14.98;;;;;;;-1.01;51.34;102198.69;4958570;28;20500;-68
2022/12/04 06:54:02;;;;;;;32.05;14.50;;;;;;;-0.78;50.16;102203.63;4976325;28;20050;-68
2022/12/04 06:56:30;;;;;;;34.53;13.63;;;;;;;-0.79;50.16;102212.19;4960011;28;20204;-68
2022/12/04 06:58:58;;;;;;;43.13;14.40;;;;;;;-0.89;50.62;102205.03;4959720;28;20055;-68
2022/12/04 07:01:27;;;;;;;33.58;12.93;;;;;;;-0.90;50.97;102211.00;4958118;28;20621;-68
2022/12/04 07:03:53;;;;;;;35.97;13.10;;;;;;;-0.79;50.25;102207.03;4955570;28;20043;-69
2022/12/04 07:06:31;;;;;;;32.05;13.15;;;;;;;-0.74;50.55;102208.03;4957814;28;20038;-68
2022/12/04 07:08:59;;;;;;;34.60;15.20;;;;;;;-0.62;50.10;102221.19;4957794;28;20038;-68
2022/12/04 07:11:25;;;;;;;33.60;14.23;;;;;;;-0.72;50.40;102210.66;4960751;28;20023;-69
2022/12/04 07:13:50;;;;;;;39.00;14.23;;;;;;;-0.90;50.99;102213.56;4958699;28;20050;-66
2022/12/04 07:16:19;;;;;;;35.40;14.05;;;;;;;-0.58;50.27;102206.75;4962049;28;20041;-65
2022/12/04 07:18:52;;;;;;;33.17;12.73;;;;;;;-0.74;50.78;102210.59;4961662;28;20094;-65
2022/12/04 07:21:20;;;;;;;33.33;13.30;;;;;;;-0.80;50.62;102211.28;4957492;28;20039;-67
2022/12/04 07:23:55;;;;;;;37.35;14.68;;;;;;;-0.69;50.62;102210.72;4959491;28;20042;-67
2022/12/04 07:26:22;;;;;;;36.75;14.13;;;;;;;-0.70;50.77;102212.44;4959366;28;20027;-67
2022/12/04 07:28:48;;;;;;;33.28;13.38;;;;;;;-0.73;50.49;102217.47;4956452;28;20054;-66
2022/12/04 07:31:17;;;;;;;35.40;13.15;;;;;;;-0.55;50.22;102211.97;4969590;28;20294;-68
2022/12/04 07:33:44;;;;;;;33.15;13.30;;;;;;;-0.40;50.13;102220.09;4972975;28;20050;-67
2022/12/04 07:36:15;;;;;;;38.20;15.05;;;;;;;-0.45;50.25;102213.97;4962393;28;20478;-69
2022/12/04 07:38:41;;;;;;;31.43;13.17;;;;;;;-0.51;50.20;102223.22;4958435;28;20047;-68
2022/12/04 07:41:10;;;;;;;36.33;14.27;;;;;;;-0.42;50.23;102228.59;4961722;28;20710;-67
2022/12/04 07:43:35;;;;;;;34.35;14.43;;;;;;;-0.45;49.66;102228.53;4957337;28;20157;-66
2022/12/04 07:46:16;;;;;;;33.83;12.90;;;;;;;-0.48;50.31;102226.75;4952045;28;20887;-67
2022/12/04 07:48:42;;;;;;;34.45;13.35;;;;;;;-0.50;49.96;102227.50;4957320;28;20039;-66
2022/12/04 07:51:15;;;;;;;35.05;13.90;;;;;;;-0.35;49.93;102215.09;4962946;28;20118;-68
2022/12/04 07:53:42;;;;;;;40.55;14.13;;;;;;;-0.27;49.90;102225.59;4940900;28;20069;-67
2022/12/04 07:56:09;;;;;;;31.05;12.95;;;;;;;-0.14;49.51;102225.94;4961481;28;20050;-66
2022/12/04 07:58:34;;;;;;;31.85;13.43;;;;;;;-0.20;49.34;102222.34;4943039;28;20047;-67
2022/12/04 08:01:14;;;;;;;31.48;13.25;;;;;;;-0.37;50.09;102227.00;4957173;28;21049;-67
2022/12/04 08:03:41;;;;;;;30.73;12.88;;;;;;;-0.29;50.10;102217.81;4953728;28;20070;-67
2022/12/04 08:06:07;;;;;;;36.45;14.85;;;;;;;-0.17;49.59;102220.72;4959653;28;20069;-68
2022/12/04 08:08:34;;;;;;;34.92;13.05;;;;;;;-0.26;49.73;102215.34;4957651;28;20050;-68
2022/12/04 08:11:00;;;;;;;37.40;13.40;;;;;;;-0.19;49.93;102222.38;4957071;28;20066;-68
2022/12/04 08:13:25;;;;;;;34.47;12.27;;;;;;;-0.27;49.81;102218.72;4956279;28;20047;-68
2022/12/04 08:15:51;;;;;;;29.95;11.57;;;;;;;-0.21;49.71;102224.03;4941750;28;20090;-68
2022/12/04 08:18:17;;;;;;;29.98;12.27;;;;;;;-0.01;49.19;102231.41;4959170;28;20038;-69
2022/12/04 08:20:42;;;;;;;29.15;13.85;;;;;;;-0.07;49.60;102231.25;4958604;28;20520;-69
2022/12/04 08:23:08;;;;;;;32.53;13.60;;;;;;;-0.19;49.45;102232.66;4958699;28;20150;-69
2022/12/04 08:25:37;;;;;;;31.13;13.05;;;;;;;0.11;48.79;102234.28;4941738;28;20825;-69
2022/12/04 08:28:03;;;;;;;30.40;13.00;;;;;;;0.15;48.58;102237.81;4959312;28;20034;-69
2022/12/04 08:30:28;;;;;;;27.88;12.38;;;;;;;0.06;48.72;102233.31;4945324;28;20035;-69
2022/12/04 08:32:53;;;;;;;27.50;11.18;;;;;;;0.05;49.13;102239.25;4956224;28;20039;-68
2022/12/04 08:35:19;;;;;;;23.20;11.38;;;;;;;0.23;48.70;102242.31;4958315;28;20035;-69
2022/12/04 08:37:44;;;;;;;31.02;11.60;;;;;;;0.31;48.63;102244.19;4957736;28;20074;-68
2022/12/04 08:40:11;;;;;;;26.95;11.88;;;;;;;0.37;48.72;102236.66;4956919;28;20090;-69
2022/12/04 08:42:36;;;;;;;25.55;11.55;;;;;;;0.13;48.83;102226.63;4956361;28;20520;-69
2022/12/04 08:45:02;;;;;;;24.25;11.30;;;;;;;0.11;49.25;102236.84;4958699;28;20089;-68
2022/12/04 08:47:27;;;;;;;33.20;13.20;;;;;;;0.17;48.87;102237.00;4956701;28;20042;-68
2022/12/04 08:49:53;;;;;;;30.85;12.27;;;;;;;0.13;49.31;102236.91;4959602;28;20045;-69
2022/12/04 08:52:18;;;;;;;30.98;11.77;;;;;;;0.13;48.97;102236.91;4957288;28;20043;-68
2022/12/04 08:54:44;;;;;;;33.90;13.20;;;;;;;0.39;48.71;102237.53;4957437;28;20712;-68
2022/12/04 08:57:09;;;;;;;30.35;13.45;;;;;;;0.40;48.77;102234.13;4959091;28;20055;-69
2022/12/04 08:59:35;;;;;;;25.35;10.98;;;;;;;0.40;48.77;102237.56;4957998;28;20160;-68
2022/12/04 09:02:00;;;;;;;26.42;12.82;;;;;;;0.13;49.02;102240.34;4962756;28;20062;-69
2022/12/04 09:04:25;;;;;;;25.60;10.85;;;;;;;0.39;48.59;102238.41;4960237;28;20039;-68
2022/12/04 09:06:51;;;;;;;30.02;11.82;;;;;;;0.51;48.60;102237.84;4961922;28;20252;-69
2022/12/04 09:09:16;;;;;;;29.60;10.50;;;;;;;0.43;48.85;102240.19;4962188;28;20026;-68
2022/12/04 09:11:44;;;;;;;21.77;10.05;;;;;;;0.59;48.06;102244.03;4947542;28;20110;-68
2022/12/04 09:14:10;;;;;;;26.17;10.93;;;;;;;0.52;48.11;102239.56;4952510;28;20035;-68
2022/12/04 09:16:35;;;;;;;24.80;9.40;;;;;;;0.55;48.21;102243.94;4954498;28;20579;-68
2022/12/04 09:19:01;;;;;;;27.48;10.35;;;;;;;0.61;48.09;102250.09;4955291;28;20608;-67
2022/12/04 09:21:26;;;;;;;33.22;12.30;;;;;;;0.55;47.88;102244.78;4955219;28;20073;-69
2022/12/04 09:23:52;;;;;;;31.23;11.75;;;;;;;0.66;47.85;102242.47;4953492;28;20049;-69
2022/12/04 09:26:28;;;;;;;25.35;10.70;;;;;;;0.53;47.98;102238.75;4961209;28;21042;-69
2022/12/04 09:28:54;;;;;;;25.85;9.90;;;;;;;0.49;48.05;102239.50;4956957;28;20046;-69
2022/12/04 09:31:21;;;;;;;26.02;9.60;;;;;;;0.63;47.92;102242.38;4960177;28;20041;-70
2022/12/04 09:33:47;;;;;;;29.73;11.25;;;;;;;0.38;47.96;102240.94;4958706;28;20555;-68
2022/12/04 09:36:15;;;;;;;25.65;10.35;;;;;;;-0.03;49.31;102246.78;4961134;28;20026;-69
2022/12/04 09:38:45;;;;;;;23.77;11.35;;;;;;;0.52;48.09;102249.84;4950000;28;20078;-68
2022/12/04 09:41:26;;;;;;;30.63;11.90;;;;;;;0.78;47.99;102247.03;4959614;28;20122;-69
2022/12/04 09:44:03;;;;;;;26.73;10.15;;;;;;;0.50;48.13;102238.66;4957915;28;20580;-69
2022/12/04 09:46:39;;;;;;;29.10;10.73;;;;;;;0.63;48.10;102248.41;4975018;28;20117;-69
2022/12/04 09:49:21;;;;;;;26.48;9.70;;;;;;;0.80;47.63;102245.34;4956788;28;20419;-70
2022/12/04 09:51:47;;;;;;;;;;;;;;;0.93;47.42;102239.66;4940894;28;20057;-67
2022/12/04 09:54:21;;;;;;;24.02;9.40;;;;;;;0.99;47.48;102244.03;4964771;28;20016;-69
2022/12/04 09:56:54;;;;;;;29.75;11.35;;;;;;;0.94;47.25;102238.81;4958867;28;20050;-69
2022/12/04 09:59:24;;;;;;;28.98;11.18;;;;;;;0.73;47.63;102246.94;4951424;28;20050;-67
2022/12/04 10:02:01;;;;;;;24.63;10.25;;;;;;;0.71;47.82;102242.59;4957855;28;20054;-67
2022/12/04 10:04:27;;;;;;;21.60;9.38;;;;;;;0.89;47.58;102241.28;4959581;28;20073;-69
2022/12/04 10:06:57;;;;;;;27.33;11.68;;;;;;;1.08;47.46;102236.53;4957618;28;20039;-69
2022/12/04 10:09:30;;;;;;;29.80;10.98;;;;;;;1.06;47.34;102244.22;4959243;28;20559;-68
2022/12/04 10:11:59;;;;;;;30.88;12.07;;;;;;;1.31;46.96;102242.16;4957671;28;20129;-68
2022/12/04 10:14:33;;;;;;;31.77;11.82;;;;;;;1.15;47.31;102237.53;4960329;28;20126;-68
2022/12/04 10:17:17;;;;;;;30.25;11.00;;;;;;;1.19;47.22;102239.31;4958959;28;20487;-68
2022/12/04 10:20:01;;;;;;;30.27;12.93;;;;;;;1.06;47.83;102236.50;4959352;28;20519;-67
2022/12/04 10:22:58;;;;;;;26.17;10.90;;;;;;;0.84;48.38;102236.88;4973937;28;20096;-67
2022/12/04 10:25:25;;;;;;;29.13;10.90;;;;;;;1.09;47.42;102230.56;4958183;28;20596;-68
2022/12/04 10:28:00;;;;;;;29.45;11.65;;;;;;;1.16;47.50;102231.56;4955712;28;20047;-68
2022/12/04 10:30:29;;;;;;;24.42;11.38;;;;;;;1.05;47.98;102232.19;4956412;28;20023;-68
2022/12/04 10:33:16;;;;;;;28.75;12.48;;;;;;;1.23;47.74;102235.97;4958040;28;20395;-68
2022/12/04 10:35:45;;;;;;;27.77;9.98;;;;;;;0.95;48.04;102225.09;4956940;28;20041;-69
2022/12/04 10:38:39;;;;;;;26.02;11.15;;;;;;;0.64;48.79;102218.41;4960089;28;20070;-67
2022/12/04 10:41:26;;;;;;;24.45;12.25;;;;;;;0.93;48.52;102226.78;4969007;28;20054;-69
2022/12/04 10:43:52;;;;;;;35.13;12.60;;;;;;;1.21;47.75;102227.34;4956097;28;20050;-68
2022/12/04 10:46:24;;;;;;;27.42;10.90;;;;;;;1.41;47.52;102225.22;4960052;28;20027;-67
2022/12/04 10:48:55;;;;;;;29.05;11.68;;;;;;;1.37;47.78;102229.38;4956254;28;20042;-67
2022/12/04 10:51:21;;;;;;;24.85;12.02;;;;;;;1.55;47.48;102228.06;4959208;28;20034;-68
2022/12/04 10:53:48;;;;;;;30.58;11.55;;;;;;;1.55;47.13;102225.47;4954878;28;20061;-68
2022/12/04 10:56:17;;;;;;;23.63;11.95;;;;;;;1.49;47.55;102224.53;4959644;28;20105;-68
2022/12/04 10:58:54;;;;;;;28.50;11.23;;;;;;;1.48;47.15;102217.66;4956161;28;20438;-68
2022/12/04 11:01:20;;;;;;;26.92;9.98;;;;;;;1.27;47.68;102212.03;4958497;28;20043;-68
2022/12/04 11:04:05;;;;;;;25.08;10.77;;;;;;;1.19;47.74;102204.13;4955397;28;20051;-68
2022/12/04 11:06:31;;;;;;;27.88;11.07;;;;;;;1.32;47.77;102203.53;4957419;28;20038;-68
2022/12/04 11:08:58;;;;;;;26.48;10.88;;;;;;;1.03;48.13;102207.25;4954422;28;20049;-68
2022/12/04 11:11:32;;;;;;;36.53;12.35;;;;;;;1.20;48.00;102199.88;4956685;28;20274;-68
2022/12/04 11:14:04;;;;;;;33.55;12.75;;;;;;;1.45;47.55;102202.13;4970733;28;20143;-68
2022/12/04 11:16:39;;;;;;;30.48;11.63;;;;;;;1.35;47.71;102204.44;4947902;28;20269;-68
2022/12/04 11:19:24;;;;;;;23.98;10.65;;;;;;;1.35;47.94;102205.34;4957393;28;20053;-68
2022/12/04 11:21:53;;;;;;;29.42;11.20;;;;;;;1.38;48.14;102189.94;4956817;28;20507;-68
2022/12/04 11:24:27;;;;;;;26.83;11.38;;;;;;;1.50;47.69;102192.75;4958736;28;20069;-68
2022/12/04 11:26:54;;;;;;;29.98;11.60;;;;;;;1.34;47.97;102190.69;4959916;28;20096;-68
2022/12/04 11:29:28;;;;;;;29.27;12.45;;;;;;;1.23;48.44;102192.19;4960385;28;20058;-67
2022/12/04 11:31:55;;;;;;;32.92;12.32;;;;;;;0.94;49.18;102191.59;4958624;28;20030;-67
2022/12/04 11:34:25;;;;;;;26.60;11.68;;;;;;;1.13;48.61;102187.69;4966761;28;20077;-69